createdAt,value
2018-08-09T00:01:12.716Z,19.90
2018-08-09T00:03:41.152Z,19.90
2018-08-09T00:06:09.601Z,19.80
2018-08-09T00:08:38.104Z,19.60
2018-08-09T00:13:34.910Z,19.50
2018-08-09T00:16:03.353Z,19.60
2018-08-09T00:18:31.825Z,19.60
2018-08-09T00:21:00.268Z,19.60
2018-08-09T00:23:28.720Z,19.70
2018-08-09T00:25:57.160Z,19.80
2018-08-09T00:28:25.600Z,19.80
2018-08-09T00:30:54.006Z,19.80
2018-08-09T00:33:22.438Z,19.80
2018-08-09T00:35:50.857Z,19.70
2018-08-09T00:38:19.281Z,19.70
2018-08-09T00:40:47.682Z,19.70
2018-08-09T00:43:16.099Z,19.60
2018-08-09T00:45:44.509Z,19.40
2018-08-09T00:48:12.966Z,19.40
2018-08-09T00:50:41.371Z,19.40
2018-08-09T00:53:09.797Z,19.30
2018-08-09T00:58:06.545Z,18.80
2018-08-09T01:00:35.051Z,18.50
2018-08-09T01:03:03.566Z,18.30
2018-08-09T01:05:31.989Z,18.30
2018-08-09T01:08:00.432Z,18.40
2018-08-09T01:10:28.888Z,18.50
2018-08-09T01:12:57.336Z,18.50
2018-08-09T01:15:25.820Z,18.60
2018-08-09T01:17:54.333Z,18.60
2018-08-09T01:20:22.757Z,18.60
2018-08-09T01:22:51.165Z,18.70
2018-08-09T01:25:19.595Z,18.60
2018-08-09T01:27:48.006Z,18.50
2018-08-09T01:30:16.500Z,18.40
2018-08-09T01:32:44.968Z,18.40
2018-08-09T01:35:13.367Z,18.50
2018-08-09T01:37:41.887Z,18.50
2018-08-09T01:40:10.354Z,18.50
2018-08-09T01:42:50.068Z,18.50
2018-08-09T01:45:18.561Z,18.50
2018-08-09T01:47:47.072Z,18.50
2018-08-09T01:50:15.547Z,18.50
2018-08-09T01:52:44.250Z,18.60
2018-08-09T01:55:12.693Z,18.60
2018-08-09T02:00:09.286Z,18.50
2018-08-09T02:02:37.683Z,18.50
2018-08-09T02:05:07.255Z,18.40
2018-08-09T02:07:35.657Z,18.40
2018-08-09T02:10:04.682Z,18.30
2018-08-09T02:12:33.102Z,18.30
2018-08-09T02:15:01.545Z,18.30
2018-08-09T02:17:29.952Z,18.30
2018-08-09T02:19:58.404Z,18.30
2018-08-09T02:22:26.838Z,18.40
2018-08-09T02:24:55.260Z,18.40
2018-08-09T02:27:23.672Z,18.40
2018-08-09T02:29:52.112Z,18.20
2018-08-09T02:32:20.505Z,18.00
2018-08-09T02:34:48.921Z,17.80
2018-08-09T02:37:17.321Z,17.60
2018-08-09T02:39:45.781Z,17.40
2018-08-09T02:42:14.176Z,17.50
2018-08-09T02:44:42.623Z,17.40
2018-08-09T02:47:11.113Z,17.40
2018-08-09T02:49:39.553Z,17.40
2018-08-09T02:52:07.968Z,17.40
2018-08-09T02:54:36.364Z,17.50
2018-08-09T02:57:04.856Z,17.50
2018-08-09T02:59:33.267Z,17.50
2018-08-09T03:02:01.674Z,17.50
2018-08-09T03:04:30.053Z,17.60
2018-08-09T03:06:58.501Z,17.60
2018-08-09T03:09:26.912Z,17.70
2018-08-09T03:11:55.375Z,17.70
2018-08-09T03:14:23.798Z,17.70
2018-08-09T03:16:52.227Z,17.70
2018-08-09T03:19:20.615Z,17.70
2018-08-09T03:21:49.063Z,17.70
2018-08-09T03:24:17.500Z,17.80
2018-08-09T03:26:45.949Z,17.80
2018-08-09T03:29:14.373Z,17.90
2018-08-09T03:31:42.806Z,17.90
2018-08-09T03:34:11.220Z,17.90
2018-08-09T03:36:39.767Z,18.00
2018-08-09T03:39:09.528Z,17.90
2018-08-09T03:41:37.976Z,17.90
2018-08-09T03:44:06.604Z,17.70
2018-08-09T03:46:35.082Z,17.70
2018-08-09T03:49:03.498Z,17.50
2018-08-09T03:54:00.028Z,17.10
2018-08-09T03:56:28.789Z,17.10
2018-08-09T03:58:57.181Z,17.10
2018-08-09T04:01:25.617Z,17.10
2018-08-09T04:03:54.105Z,17.20
2018-08-09T04:06:22.535Z,17.30
2018-08-09T04:08:50.920Z,17.30
2018-08-09T04:11:19.341Z,17.20
2018-08-09T04:13:47.742Z,17.30
2018-08-09T04:16:16.153Z,17.30
2018-08-09T04:18:44.554Z,17.40
2018-08-09T04:21:13.010Z,17.40
2018-08-09T04:23:41.433Z,17.50
2018-08-09T04:26:09.895Z,17.60
2018-08-09T04:28:38.337Z,17.70
2018-08-09T04:31:06.810Z,17.70
2018-08-09T04:33:35.314Z,17.80
2018-08-09T04:36:04.020Z,17.90
2018-08-09T04:38:32.456Z,18.00
2018-08-09T04:41:00.854Z,18.00
2018-08-09T04:43:29.330Z,18.10
2018-08-09T04:45:57.754Z,18.10
2018-08-09T04:48:26.181Z,18.20
2018-08-09T04:50:54.615Z,18.30
2018-08-09T04:53:23.068Z,18.40
2018-08-09T04:55:51.485Z,18.50
2018-08-09T04:58:20.033Z,18.50
2018-08-09T05:00:48.420Z,18.60
2018-08-09T05:03:16.841Z,18.70
2018-08-09T05:05:45.258Z,18.80
2018-08-09T05:08:13.702Z,18.80
2018-08-09T05:10:42.109Z,18.80
2018-08-09T05:13:10.542Z,18.90
2018-08-09T05:15:39.004Z,19.00
2018-08-09T05:18:07.781Z,19.00
2018-08-09T05:20:36.177Z,19.10
2018-08-09T05:23:04.635Z,19.20
2018-08-09T05:25:33.036Z,19.40
2018-08-09T05:28:01.489Z,19.40
2018-08-09T05:30:29.900Z,19.40
2018-08-09T05:32:58.360Z,19.60
2018-08-09T05:35:26.944Z,19.70
2018-08-09T05:37:55.446Z,19.70
2018-08-09T05:40:23.843Z,19.80
2018-08-09T05:42:52.289Z,19.80
2018-08-09T05:45:20.752Z,19.80
2018-08-09T05:47:49.189Z,19.90
2018-08-09T05:50:17.621Z,19.90
2018-08-09T05:52:46.193Z,20.10
2018-08-09T05:55:14.546Z,20.20
2018-08-09T05:57:42.965Z,20.40
2018-08-09T06:02:39.610Z,20.80
2018-08-09T06:05:08.269Z,21.10
2018-08-09T06:07:36.708Z,21.40
2018-08-09T06:10:06.337Z,21.50
2018-08-09T06:12:34.814Z,21.70
2018-08-09T06:15:03.273Z,22.00
2018-08-09T06:17:31.785Z,22.30
2018-08-09T06:22:28.368Z,23.10
2018-08-09T06:24:56.802Z,23.60
2018-08-09T06:29:53.577Z,25.00
2018-08-09T06:32:22.016Z,26.00
2018-08-09T06:34:50.618Z,26.90
2018-08-09T06:37:19.156Z,28.40
2018-08-09T06:39:47.709Z,29.50
2018-08-09T06:42:16.217Z,30.80
2018-08-09T06:44:44.660Z,31.10
2018-08-09T06:47:13.212Z,32.40
2018-08-09T06:52:09.881Z,31.60
2018-08-09T06:54:38.336Z,31.70
2018-08-09T06:57:06.937Z,32.20
2018-08-09T06:59:35.388Z,32.40
2018-08-09T07:02:03.839Z,33.30
2018-08-09T07:04:32.266Z,33.90
2018-08-09T07:07:00.685Z,33.50
2018-08-09T07:11:57.240Z,32.20
2018-08-09T07:14:25.742Z,32.30
2018-08-09T07:16:54.175Z,32.20
2018-08-09T07:19:22.614Z,32.70
2018-08-09T07:21:51.025Z,33.10
2018-08-09T07:24:19.474Z,33.70
2018-08-09T07:26:48.004Z,34.20
2018-08-09T07:29:16.433Z,33.90
2018-08-09T07:31:44.840Z,34.10
2018-08-09T07:34:13.292Z,35.60
2018-08-09T07:36:41.764Z,37.10
2018-08-09T07:39:10.352Z,38.20
2018-08-09T07:41:39.645Z,39.30
2018-08-09T07:44:08.156Z,39.80
2018-08-09T07:46:36.593Z,39.90
2018-08-09T07:49:05.081Z,40.70
2018-08-09T07:51:33.496Z,40.80
2018-08-09T07:54:01.932Z,40.50
2018-08-09T07:56:30.334Z,39.80
2018-08-09T07:58:58.792Z,39.10
2018-08-09T08:01:27.204Z,38.30
2018-08-09T08:03:55.656Z,37.90
2018-08-09T08:06:24.118Z,37.50
2018-08-09T08:08:52.548Z,37.40
2018-08-09T08:11:20.965Z,38.10
2018-08-09T08:13:49.400Z,38.20
2018-08-09T08:16:17.832Z,37.50
2018-08-09T08:18:46.269Z,37.30
2018-08-09T08:21:14.734Z,37.60
2018-08-09T08:23:43.221Z,37.70
2018-08-09T08:26:11.697Z,37.80
2018-08-09T08:28:40.130Z,37.80
2018-08-09T08:31:08.644Z,37.90
2018-08-09T08:33:37.060Z,38.00
2018-08-09T08:36:05.527Z,38.00
2018-08-09T08:38:33.962Z,38.50
2018-08-09T08:41:02.440Z,38.60
2018-08-09T08:43:30.856Z,39.30
2018-08-09T08:48:27.416Z,41.40
2018-08-09T08:50:55.848Z,41.50
2018-08-09T08:53:24.284Z,42.00
2018-08-09T08:55:52.928Z,42.40
2018-08-09T08:58:21.351Z,42.70
2018-08-09T09:00:49.952Z,41.80
2018-08-09T09:03:18.469Z,42.20
2018-08-09T09:05:46.920Z,41.70
2018-08-09T09:08:15.317Z,40.70
2018-08-09T09:10:43.770Z,40.60
2018-08-09T09:13:12.237Z,42.00
2018-08-09T09:15:40.754Z,43.00
2018-08-09T09:18:09.196Z,42.20
2018-08-09T09:20:37.678Z,41.90
2018-08-09T09:23:06.340Z,42.30
2018-08-09T09:25:34.783Z,42.70
2018-08-09T09:28:03.254Z,41.40
2018-08-09T09:30:31.687Z,41.20
2018-08-09T09:33:00.081Z,41.70
2018-08-09T09:35:28.525Z,42.70
2018-08-09T09:37:56.921Z,43.20
2018-08-09T09:40:25.376Z,43.00
2018-08-09T09:42:53.803Z,43.70
2018-08-09T09:45:22.252Z,44.10
2018-08-09T09:50:18.910Z,44.20
2018-08-09T09:52:47.335Z,45.30
2018-08-09T09:55:15.745Z,45.80
2018-08-09T09:57:44.181Z,45.30
2018-08-09T10:00:17.888Z,45.10
2018-08-09T10:02:46.709Z,45.10
2018-08-09T10:05:16.073Z,45.00
2018-08-09T10:07:44.501Z,44.60
2018-08-09T10:10:13.237Z,44.90
2018-08-09T10:12:42.482Z,44.80
2018-08-09T10:15:11.060Z,44.30
2018-08-09T10:17:39.623Z,44.00
2018-08-09T10:20:08.581Z,43.90
2018-08-09T10:22:37.276Z,44.10
2018-08-09T10:25:06.220Z,44.00
2018-08-09T10:27:34.637Z,43.70
2018-08-09T10:30:03.353Z,44.10
2018-08-09T10:32:31.925Z,44.70
2018-08-09T10:35:00.355Z,44.70
2018-08-09T10:37:28.814Z,44.60
2018-08-09T10:39:57.212Z,45.20
2018-08-09T10:42:25.648Z,45.10
2018-08-09T10:44:54.054Z,44.60
2018-08-09T10:47:22.512Z,43.90
2018-08-09T10:49:50.900Z,43.60
2018-08-09T10:52:19.357Z,43.40
2018-08-09T10:54:47.777Z,43.50
2018-08-09T10:57:16.205Z,43.40
2018-08-09T10:59:44.613Z,42.60
2018-08-09T11:02:13.067Z,40.40
2018-08-09T11:04:41.477Z,36.80
2018-08-09T11:07:09.903Z,36.00
2018-08-09T11:09:38.317Z,35.60
2018-08-09T11:14:34.853Z,35.10
2018-08-09T11:19:31.415Z,34.00
2018-08-09T11:22:00.054Z,33.60
2018-08-09T11:24:28.448Z,33.70
2018-08-09T11:26:56.880Z,33.60
2018-08-09T11:29:25.354Z,33.60
2018-08-09T11:31:53.802Z,33.90
2018-08-09T11:34:22.220Z,34.10
2018-08-09T11:36:50.650Z,34.10
2018-08-09T11:39:19.065Z,34.20
2018-08-09T11:41:47.509Z,34.20
2018-08-09T11:44:15.938Z,34.10
2018-08-09T11:46:44.352Z,34.00
2018-08-09T11:49:12.806Z,33.90
2018-08-09T11:51:41.221Z,33.60
2018-08-09T11:54:09.784Z,33.50
2018-08-09T11:56:38.284Z,33.30
2018-08-09T11:59:06.695Z,33.10
2018-08-09T12:01:35.185Z,33.10
2018-08-09T12:04:03.630Z,33.20
2018-08-09T12:06:32.061Z,33.00
2018-08-09T12:09:00.480Z,33.00
2018-08-09T12:11:28.893Z,33.00
2018-08-09T12:13:57.374Z,32.90
2018-08-09T12:16:25.925Z,32.90
2018-08-09T12:18:54.917Z,33.00
2018-08-09T12:21:23.349Z,32.90
2018-08-09T12:23:51.879Z,32.80
2018-08-09T12:26:20.325Z,32.90
2018-08-09T12:28:48.808Z,33.00
2018-08-09T12:31:17.383Z,32.90
2018-08-09T12:33:45.843Z,33.00
2018-08-09T12:36:14.308Z,33.00
2018-08-09T12:38:42.835Z,33.00
2018-08-09T12:41:11.281Z,33.10
2018-08-09T12:43:39.773Z,33.10
2018-08-09T12:46:08.365Z,33.20
2018-08-09T12:51:05.329Z,33.20
2018-08-09T12:53:34.028Z,33.10
2018-08-09T12:56:02.467Z,33.00
2018-08-09T12:58:30.960Z,33.00
2018-08-09T13:00:59.436Z,32.90
2018-08-09T13:03:27.885Z,33.00
2018-08-09T13:05:56.320Z,33.10
2018-08-09T13:08:25.051Z,33.00
2018-08-09T13:13:21.585Z,32.80
2018-08-09T13:15:50.188Z,32.80
2018-08-09T13:18:18.660Z,32.90
2018-08-09T13:20:47.160Z,33.00
2018-08-09T13:23:15.624Z,32.90
2018-08-09T13:25:44.074Z,32.90
2018-08-09T13:28:12.564Z,32.90
2018-08-09T13:30:40.952Z,33.20
2018-08-09T13:35:37.555Z,33.10
2018-08-09T13:38:06.024Z,33.10
2018-08-09T13:40:34.405Z,33.10
2018-08-09T13:43:02.855Z,33.10
2018-08-09T13:45:31.409Z,33.10
2018-08-09T13:47:59.886Z,33.20
2018-08-09T13:50:28.385Z,33.20
2018-08-09T13:52:56.810Z,33.20
2018-08-09T13:55:25.272Z,33.10
2018-08-09T13:57:53.734Z,33.20
2018-08-09T14:00:22.183Z,33.20
2018-08-09T14:02:50.653Z,33.40
2018-08-09T14:05:19.168Z,33.60
2018-08-09T14:07:47.633Z,33.70
2018-08-09T14:10:16.081Z,33.70
2018-08-09T14:12:44.498Z,33.60
2018-08-09T14:15:14.331Z,33.40
2018-08-09T14:17:43.033Z,33.40
2018-08-09T14:20:15.290Z,33.40
2018-08-09T14:22:44.028Z,33.40
2018-08-09T14:25:12.857Z,33.40
2018-08-09T14:30:11.413Z,33.40
2018-08-09T14:32:39.874Z,33.30
2018-08-09T14:35:10.245Z,33.20
2018-08-09T14:37:38.973Z,33.10
2018-08-09T14:40:08.441Z,32.90
2018-08-09T14:42:37.194Z,32.70
2018-08-09T14:45:08.340Z,33.00
2018-08-09T14:47:37.074Z,33.10
2018-08-09T14:50:06.475Z,33.10
2018-08-09T14:52:35.424Z,33.20
2018-08-09T14:55:05.093Z,33.40
2018-08-09T14:57:33.597Z,33.30
2018-08-09T15:00:02.082Z,33.20
2018-08-09T15:02:30.550Z,33.10
2018-08-09T15:04:59.055Z,33.10
2018-08-09T15:07:27.536Z,33.20
2018-08-09T15:09:56.125Z,33.20
2018-08-09T15:12:24.553Z,33.20
2018-08-09T15:14:53.114Z,33.00
2018-08-09T15:17:21.622Z,32.80
2018-08-09T15:19:50.052Z,32.60
2018-08-09T15:22:18.537Z,32.50
2018-08-09T15:24:46.989Z,32.50
2018-08-09T15:27:15.503Z,32.60
2018-08-09T15:29:44.029Z,32.60
2018-08-09T15:32:12.590Z,32.60
2018-08-09T15:34:41.109Z,32.80
2018-08-09T15:37:09.578Z,32.80
2018-08-09T15:44:34.268Z,33.00
2018-08-09T15:47:02.807Z,32.90
2018-08-09T15:49:31.281Z,32.70
2018-08-09T15:51:59.726Z,32.50
2018-08-09T15:54:28.125Z,32.40
2018-08-09T15:56:56.553Z,32.40
2018-08-09T15:59:25.002Z,32.30
2018-08-09T16:01:53.491Z,32.20
2018-08-09T16:04:22.373Z,32.10
2018-08-09T16:06:50.887Z,32.10
2018-08-09T16:09:19.336Z,32.10
2018-08-09T16:11:47.848Z,32.20
2018-08-09T16:14:16.298Z,32.40
2018-08-09T16:16:44.744Z,32.40
2018-08-09T16:19:13.187Z,32.50
2018-08-09T16:21:41.620Z,32.60
2018-08-09T16:24:10.083Z,32.60
2018-08-09T16:26:38.592Z,32.70
2018-08-09T16:29:07.072Z,32.80
2018-08-09T16:34:03.700Z,32.80
2018-08-09T16:36:32.217Z,32.80
2018-08-09T16:39:00.645Z,32.90
2018-08-09T16:41:29.096Z,33.20
2018-08-09T16:43:57.562Z,33.30
2018-08-09T16:46:26.139Z,33.20
2018-08-09T16:48:54.545Z,33.00
2018-08-09T16:53:51.256Z,33.00
2018-08-09T16:56:19.772Z,32.70
2018-08-09T16:58:48.689Z,32.60
2018-08-09T17:01:17.120Z,32.30
2018-08-09T17:03:45.681Z,32.40
2018-08-09T17:06:14.140Z,32.50
2018-08-09T17:08:42.565Z,32.30
2018-08-09T17:11:11.013Z,31.80
2018-08-09T17:13:39.476Z,31.40
2018-08-09T17:16:07.968Z,31.00
2018-08-09T17:18:36.401Z,30.70
2018-08-09T17:21:04.885Z,30.60
2018-08-09T17:23:33.324Z,30.40
2018-08-09T17:26:01.794Z,30.30
2018-08-09T17:28:30.298Z,30.30
2018-08-09T17:30:58.748Z,30.30
2018-08-09T17:33:27.219Z,30.20
2018-08-09T17:35:55.665Z,30.10
2018-08-09T17:38:24.174Z,29.80
2018-08-09T17:40:52.691Z,29.30
2018-08-09T17:45:49.265Z,28.50
2018-08-09T17:48:17.789Z,28.30
2018-08-09T17:50:46.239Z,28.30
2018-08-09T17:53:14.706Z,28.10
2018-08-09T17:55:43.137Z,28.00
2018-08-09T17:58:12.010Z,27.80
2018-08-09T18:00:40.422Z,27.60
2018-08-09T18:03:08.885Z,27.50
2018-08-09T18:05:37.335Z,27.40
2018-08-09T18:08:06.160Z,27.20
2018-08-09T18:10:35.668Z,26.50
2018-08-09T18:13:04.258Z,25.70
2018-08-09T18:15:32.946Z,25.10
2018-08-09T18:18:02.259Z,24.40
2018-08-09T18:20:33.372Z,23.80
2018-08-09T18:23:01.908Z,23.20
2018-08-09T18:25:30.372Z,22.80
2018-08-09T18:27:58.892Z,22.60
2018-08-09T18:30:27.325Z,22.40
2018-08-09T18:32:55.888Z,22.30
2018-08-09T18:35:24.295Z,22.30
2018-08-09T18:37:52.802Z,22.20
2018-08-09T18:40:23.662Z,22.10
2018-08-09T18:42:52.113Z,22.00
2018-08-09T18:45:21.132Z,21.90
2018-08-09T18:47:49.661Z,21.80
2018-08-09T18:50:22.061Z,21.70
2018-08-09T18:55:19.644Z,21.70
2018-08-09T18:57:48.318Z,21.70
2018-08-09T19:00:19.257Z,21.70
2018-08-09T19:02:48.294Z,21.80
2018-08-09T19:05:16.972Z,21.90
2018-08-09T19:07:45.672Z,21.90
2018-08-09T19:10:29.885Z,22.10
2018-08-09T19:12:58.383Z,22.10
2018-08-09T19:15:26.862Z,22.10
2018-08-09T19:17:55.356Z,22.00
2018-08-09T19:20:26.149Z,22.10
2018-08-09T19:22:54.672Z,22.00
2018-08-09T19:25:23.187Z,22.00
2018-08-09T19:27:51.717Z,22.00
2018-08-09T19:30:24.022Z,22.00
2018-08-09T19:32:52.598Z,22.10
2018-08-09T19:35:21.592Z,22.20
2018-08-09T19:37:50.534Z,22.30
2018-08-09T19:40:22.052Z,22.20
2018-08-09T19:42:50.526Z,22.10
2018-08-09T19:45:19.643Z,22.10
2018-08-09T19:47:48.511Z,22.10
2018-08-09T19:50:18.636Z,22.10
2018-08-09T19:55:16.625Z,22.10
2018-08-09T19:57:46.309Z,22.00
2018-08-09T20:00:16.612Z,21.90
2018-08-09T20:02:46.239Z,21.80
2018-08-09T20:05:14.773Z,21.80
2018-08-09T20:07:43.794Z,21.90
2018-08-09T20:10:12.920Z,22.10
2018-08-09T20:12:41.873Z,22.20
2018-08-09T20:15:13.462Z,22.30
2018-08-09T20:17:41.978Z,22.40
2018-08-09T20:20:12.012Z,22.50
2018-08-09T20:22:40.560Z,22.50
2018-08-09T20:25:10.354Z,22.30
2018-08-09T20:27:38.953Z,22.20
2018-08-09T20:30:10.057Z,22.20
2018-08-09T20:32:38.853Z,22.10
2018-08-09T20:35:13.406Z,22.10
2018-08-09T20:37:46.675Z,22.00
2018-08-09T20:40:15.759Z,22.00
2018-08-09T20:42:45.031Z,22.00
2018-08-09T20:45:14.858Z,21.90
2018-08-09T20:47:43.415Z,21.50
2018-08-09T20:50:14.872Z,21.20
2018-08-09T20:52:44.136Z,20.90
2018-08-09T20:55:12.641Z,20.70
2018-08-09T20:57:42.091Z,20.60
2018-08-09T21:00:14.916Z,20.50
2018-08-09T21:02:44.227Z,20.50
2018-08-09T21:05:22.456Z,20.40
2018-08-09T21:07:51.928Z,20.40
2018-08-09T21:10:20.689Z,20.30
2018-08-09T21:12:49.226Z,20.30
2018-08-09T21:15:18.637Z,20.30
2018-08-09T21:17:47.084Z,20.30
2018-08-09T21:20:15.781Z,20.30
2018-08-09T21:22:45.759Z,20.40
2018-08-09T21:25:14.450Z,20.50
2018-08-09T21:27:43.213Z,20.60
2018-08-09T21:30:14.224Z,20.80
2018-08-09T21:32:42.965Z,20.90
2018-08-09T21:35:11.505Z,21.00
2018-08-09T21:37:40.926Z,21.10
2018-08-09T21:40:10.684Z,21.00
2018-08-09T21:42:39.320Z,21.00
2018-08-09T21:45:15.718Z,21.00
2018-08-09T21:47:44.190Z,21.10
2018-08-09T21:50:16.149Z,21.10
2018-08-09T21:52:44.591Z,21.10
2018-08-09T21:55:13.677Z,21.00
2018-08-09T21:57:43.330Z,21.00
2018-08-09T22:00:50.945Z,21.10
2018-08-09T22:03:21.417Z,21.00
2018-08-09T22:05:55.501Z,21.00
2018-08-09T22:08:29.297Z,20.90
2018-08-09T22:11:03.239Z,20.80
2018-08-09T22:13:37.115Z,20.60
2018-08-09T22:16:11.497Z,20.60
2018-08-09T22:18:45.361Z,20.60
2018-08-09T22:21:19.165Z,20.60
2018-08-09T22:23:48.048Z,20.60
2018-08-09T22:26:16.498Z,20.60
2018-08-09T22:28:45.240Z,20.70
2018-08-09T22:31:14.396Z,20.70
2018-08-09T22:33:42.896Z,20.70
2018-08-09T22:36:11.336Z,20.60
2018-08-09T22:38:39.861Z,20.50
2018-08-09T22:41:08.280Z,20.60
2018-08-09T22:43:36.757Z,20.60
2018-08-09T22:46:05.445Z,20.60
2018-08-09T22:48:34.286Z,20.50
2018-08-09T22:51:02.807Z,20.50
2018-08-09T22:53:31.280Z,20.50
2018-08-09T22:55:59.752Z,20.40
2018-08-09T22:58:28.224Z,20.40
2018-08-09T23:00:56.709Z,20.30
2018-08-09T23:03:25.336Z,20.20
2018-08-09T23:05:53.819Z,20.10
2018-08-09T23:08:22.285Z,20.00
2018-08-09T23:10:50.717Z,19.90
2018-08-09T23:13:19.212Z,19.90
2018-08-09T23:15:47.677Z,19.90
2018-08-09T23:20:44.286Z,20.10
2018-08-09T23:23:12.766Z,20.10
2018-08-09T23:25:41.209Z,20.10
2018-08-09T23:28:09.739Z,20.20
2018-08-09T23:30:38.170Z,20.20
2018-08-09T23:33:06.816Z,20.20
2018-08-09T23:35:35.283Z,20.20
2018-08-09T23:38:03.923Z,20.30
2018-08-09T23:40:32.388Z,20.30
2018-08-09T23:43:00.853Z,20.20
2018-08-09T23:45:29.289Z,20.20
2018-08-09T23:47:57.800Z,20.10
2018-08-09T23:50:26.209Z,20.10
2018-08-09T23:53:23.326Z,20.10
2018-08-09T23:55:51.752Z,20.10
2018-08-09T23:58:20.212Z,20.10
